Time;durP1;ratioP1;P1;durP2;ratioP2;P2;SDS_P1;SDS_P2;PMS_P1;PMS_P2;Temp;Humidity;BMP_temperature;BMP_pressure;BME280_temperature;BME280_humidity;BME280_pressure;Samples;Min_cycle;Max_cycle;Signal;HPM_P1;HPM_P2
2024/01/19 00:01:04;;;;;;;15.57;8.37;;;-6.80;99.90;;;;;;5009531;28;20255;-63
2024/01/19 00:03:30;;;;;;;22.92;10.52;;;-6.80;99.90;;;;;;5012326;28;20044;-63
2024/01/19 00:05:55;;;;;;;18.27;9.45;;;-6.90;99.90;;;;;;5008781;28;20445;-63
2024/01/19 00:08:22;;;;;;;19.87;10.23;;;-6.80;99.90;;;;;;5015724;28;20060;-63
2024/01/19 00:10:47;;;;;;;19.73;8.63;;;-6.80;99.90;;;;;;5016497;28;20041;-63
2024/01/19 00:13:13;;;;;;;19.52;8.80;;;-6.80;99.90;;;;;;5012359;28;20037;-63
2024/01/19 00:15:39;;;;;;;14.23;7.85;;;-6.80;99.90;;;;;;5013808;28;20030;-64
2024/01/19 00:18:04;;;;;;;18.58;8.90;;;-6.90;99.90;;;;;;5005594;28;20656;-64
2024/01/19 00:20:30;;;;;;;18.93;8.67;;;-6.80;99.90;;;;;;5012667;28;20034;-64
2024/01/19 00:22:55;;;;;;;14.15;8.32;;;-6.90;99.90;;;;;;5011486;28;20107;-64
2024/01/19 00:25:21;;;;;;;19.50;9.63;;;-6.90;99.90;;;;;;5013363;28;20021;-63
2024/01/19 00:27:46;;;;;;;23.67;11.60;;;-6.90;99.90;;;;;;5016748;28;20033;-63
2024/01/19 00:30:12;;;;;;;18.63;9.68;;;-6.80;99.90;;;;;;5018576;28;20108;-64
2024/01/19 00:32:37;;;;;;;19.83;10.17;;;-6.80;99.90;;;;;;5014531;28;20036;-63
2024/01/19 00:35:03;;;;;;;15.87;8.20;;;-6.80;99.90;;;;;;5012880;28;20045;-64
2024/01/19 00:37:29;;;;;;;19.95;9.30;;;-6.80;99.90;;;;;;5014666;28;20037;-63
2024/01/19 00:39:54;;;;;;;18.90;9.05;;;-6.90;99.90;;;;;;5016889;28;20674;-64
2024/01/19 00:42:20;;;;;;;21.10;9.02;;;-6.90;99.90;;;;;;5019783;28;20501;-63
2024/01/19 00:44:45;;;;;;;17.30;8.93;;;-6.90;99.90;;;;;;5017701;28;20034;-63
2024/01/19 00:47:11;;;;;;;15.55;7.82;;;-6.90;99.90;;;;;;5019448;28;20056;-64
2024/01/19 00:49:36;;;;;;;18.55;8.57;;;-6.90;99.90;;;;;;5014207;28;20448;-63
2024/01/19 00:52:02;;;;;;;18.02;8.55;;;-6.90;99.90;;;;;;5010724;28;20022;-63
2024/01/19 00:54:28;;;;;;;14.97;8.50;;;-7.00;99.90;;;;;;5008808;28;20046;-63
2024/01/19 00:56:54;;;;;;;15.60;8.20;;;-7.00;99.90;;;;;;5015804;28;20029;-63
2024/01/19 00:59:19;;;;;;;17.20;8.57;;;-7.00;99.90;;;;;;5023909;28;20241;-61
2024/01/19 01:01:45;;;;;;;17.07;9.30;;;-7.00;99.90;;;;;;5015585;28;20028;-63
2024/01/19 01:04:10;;;;;;;19.73;7.93;;;-7.00;99.90;;;;;;5019645;28;20168;-63
2024/01/19 01:06:35;;;;;;;16.52;8.48;;;-7.00;99.90;;;;;;5021514;28;20037;-63
2024/01/19 01:09:02;;;;;;;17.42;7.97;;;-7.00;99.90;;;;;;5019400;28;20021;-63
2024/01/19 01:11:28;;;;;;;15.10;7.93;;;-7.00;99.90;;;;;;5018590;28;20088;-63
2024/01/19 01:13:53;;;;;;;14.67;7.53;;;-7.00;99.90;;;;;;5016834;28;20029;-63
2024/01/19 01:16:19;;;;;;;14.18;7.90;;;-7.00;99.90;;;;;;5011504;28;20453;-63
2024/01/19 01:18:44;;;;;;;18.10;10.52;;;-7.00;99.90;;;;;;5013948;28;20533;-64
2024/01/19 01:21:09;;;;;;;18.47;8.93;;;-7.00;99.90;;;;;;5019698;28;20021;-63
2024/01/19 01:23:35;;;;;;;14.10;7.82;;;-7.00;99.90;;;;;;5020230;28;20552;-63
2024/01/19 01:26:00;;;;;;;16.57;9.23;;;-7.00;99.90;;;;;;5017267;28;20036;-63
2024/01/19 01:28:26;;;;;;;17.83;8.52;;;-7.00;99.90;;;;;;5022286;28;20189;-63
2024/01/19 01:30:52;;;;;;;16.70;9.17;;;-7.00;99.90;;;;;;5020392;28;20100;-63
2024/01/19 01:33:17;;;;;;;19.17;9.13;;;-7.00;99.90;;;;;;5021187;28;20505;-63
2024/01/19 01:35:43;;;;;;;15.82;8.70;;;-7.00;99.90;;;;;;5020523;28;20035;-63
2024/01/19 01:38:08;;;;;;;16.60;9.07;;;-7.00;99.90;;;;;;5018166;28;20407;-63
2024/01/19 01:40:34;;;;;;;21.80;9.20;;;-7.00;99.90;;;;;;5022869;28;20245;-63
2024/01/19 01:43:01;;;;;;;13.90;8.33;;;-7.00;99.90;;;;;;5021672;28;20448;-63
2024/01/19 01:45:27;;;;;;;16.67;9.20;;;-6.90;99.90;;;;;;5021344;28;20497;-63
2024/01/19 01:47:53;;;;;;;14.60;7.43;;;-6.90;99.90;;;;;;5018709;28;20049;-64
2024/01/19 01:50:19;;;;;;;16.10;7.65;;;-6.90;99.90;;;;;;5015474;28;20064;-63
2024/01/19 01:52:45;;;;;;;14.30;7.17;;;-6.90;99.90;;;;;;5018993;28;20033;-63
2024/01/19 01:55:12;;;;;;;17.25;8.88;;;-6.90;99.90;;;;;;5018286;28;20022;-64
2024/01/19 01:57:38;;;;;;;15.53;7.83;;;-6.90;99.90;;;;;;5016732;28;20033;-63
2024/01/19 02:00:04;;;;;;;13.77;8.02;;;-6.90;99.90;;;;;;5014623;28;20053;-63
2024/01/19 02:02:29;;;;;;;13.13;6.82;;;-6.90;99.90;;;;;;5017555;28;23007;-64
2024/01/19 02:04:55;;;;;;;14.37;7.47;;;-6.90;99.90;;;;;;5012800;28;20032;-64
2024/01/19 02:07:20;;;;;;;19.13;8.03;;;-6.90;99.90;;;;;;5018372;28;20041;-64
2024/01/19 02:09:46;;;;;;;18.00;7.67;;;-6.90;99.90;;;;;;5014249;28;20061;-64
2024/01/19 02:12:12;;;;;;;19.17;8.37;;;-6.90;99.90;;;;;;5017390;28;20401;-63
2024/01/19 02:14:38;;;;;;;15.63;7.80;;;-6.90;99.90;;;;;;5012837;28;20030;-64
2024/01/19 02:17:03;;;;;;;16.48;7.82;;;-6.90;99.90;;;;;;5018841;28;20033;-64
2024/01/19 02:19:29;;;;;;;15.85;8.30;;;-6.90;99.90;;;;;;5015144;28;20249;-64
2024/01/19 02:21:54;;;;;;;15.80;9.02;;;-6.90;99.90;;;;;;5009447;28;20029;-63
2024/01/19 02:24:21;;;;;;;18.00;7.23;;;-6.90;99.90;;;;;;5011137;28;20083;-63
2024/01/19 02:26:46;;;;;;;14.68;7.35;;;-6.90;99.90;;;;;;5012884;28;20237;-63
2024/01/19 02:29:12;;;;;;;13.50;7.28;;;-6.90;99.90;;;;;;5021823;28;20217;-63
2024/01/19 02:31:38;;;;;;;14.17;7.57;;;-6.90;99.90;;;;;;5020627;28;20024;-62
2024/01/19 02:34:04;;;;;;;15.55;7.93;;;-6.90;99.90;;;;;;5012328;28;20061;-62
2024/01/19 02:36:29;;;;;;;12.77;6.67;;;-6.90;99.90;;;;;;5020334;28;20225;-63
2024/01/19 02:38:55;;;;;;;13.10;7.22;;;-6.90;99.90;;;;;;5020355;28;20037;-63
2024/01/19 02:41:20;;;;;;;13.40;7.15;;;-6.90;99.90;;;;;;5020279;28;20032;-62
2024/01/19 02:43:46;;;;;;;14.35;7.70;;;-6.90;99.90;;;;;;5022116;28;20037;-62
2024/01/19 02:46:14;;;;;;;11.30;6.35;;;-6.90;99.90;;;;;;5020002;28;20099;-63
2024/01/19 02:48:40;;;;;;;13.63;7.37;;;-6.90;99.90;;;;;;5020213;28;20033;-63
2024/01/19 02:51:05;;;;;;;16.43;7.10;;;-6.90;99.90;;;;;;5011974;28;20030;-62
2024/01/19 02:53:31;;;;;;;17.07;8.07;;;-6.90;99.90;;;;;;5013908;28;20113;-70
2024/01/19 02:55:56;;;;;;;14.32;7.05;;;-6.90;99.90;;;;;;5010630;28;20064;-62
2024/01/19 02:58:22;;;;;;;14.73;7.30;;;-6.90;99.90;;;;;;5017850;28;20026;-61
2024/01/19 03:00:47;;;;;;;15.17;7.27;;;-6.90;99.90;;;;;;5011979;28;20501;-62
2024/01/19 03:03:13;;;;;;;12.03;6.70;;;-6.90;99.90;;;;;;5012896;28;20064;-62
2024/01/19 03:05:38;;;;;;;12.75;5.78;;;-7.00;99.90;;;;;;5020054;28;20460;-62
2024/01/19 03:08:04;;;;;;;11.25;7.03;;;-7.00;99.90;;;;;;5020066;28;20211;-64
2024/01/19 03:10:29;;;;;;;10.07;6.30;;;-6.90;99.90;;;;;;5019965;28;20037;-62
2024/01/19 03:12:55;;;;;;;10.60;6.17;;;-7.00;99.90;;;;;;5021678;28;20087;-62
2024/01/19 03:15:20;;;;;;;13.00;7.40;;;-7.00;99.90;;;;;;5019784;28;20037;-62
2024/01/19 03:17:46;;;;;;;10.48;6.53;;;-6.90;99.90;;;;;;5015553;28;20068;-62
2024/01/19 03:20:12;;;;;;;12.63;6.35;;;-6.90;99.90;;;;;;5014068;28;20045;-62
2024/01/19 03:22:38;;;;;;;11.30;6.45;;;-6.90;99.90;;;;;;5013251;28;20029;-62
2024/01/19 03:25:03;;;;;;;14.90;6.63;;;-6.90;99.90;;;;;;5011543;28;20167;-62
2024/01/19 03:27:29;;;;;;;17.50;7.30;;;-6.80;99.90;;;;;;5015977;28;20044;-62
2024/01/19 03:29:55;;;;;;;11.50;6.80;;;-6.80;99.90;;;;;;5012041;28;20071;-62
2024/01/19 03:32:21;;;;;;;13.10;7.03;;;-6.80;99.90;;;;;;5015399;28;20034;-63
2024/01/19 03:34:47;;;;;;;11.55;5.65;;;-6.70;99.90;;;;;;5019367;28;20036;-62
2024/01/19 03:37:13;;;;;;;12.52;6.97;;;-6.70;99.90;;;;;;5019514;28;20052;-62
2024/01/19 03:39:38;;;;;;;12.25;6.05;;;-6.70;99.90;;;;;;5019681;28;20029;-62
2024/01/19 03:42:04;;;;;;;13.98;6.43;;;-6.70;99.90;;;;;;5021387;28;20036;-62
2024/01/19 03:44:29;;;;;;;12.83;7.20;;;-6.70;99.90;;;;;;5019746;28;20100;-62
2024/01/19 03:46:56;;;;;;;13.02;6.97;;;-6.70;99.90;;;;;;5019507;28;20585;-63
2024/01/19 03:49:21;;;;;;;14.73;6.67;;;-6.70;99.90;;;;;;5015315;28;20041;-62
2024/01/19 03:52:07;;;;;;;12.73;6.05;;;-6.70;99.90;;;;;;5015463;28;20060;-62
2024/01/19 03:54:33;;;;;;;10.80;5.50;;;-6.80;99.90;;;;;;5011416;28;20397;-63
2024/01/19 03:57:00;;;;;;;15.93;6.90;;;-6.70;99.90;;;;;;5012845;28;20105;-62
2024/01/19 03:59:27;;;;;;;12.75;6.75;;;-6.80;99.90;;;;;;5016318;28;20042;-62
2024/01/19 04:01:53;;;;;;;13.70;7.35;;;-6.70;99.90;;;;;;5009991;28;20410;-63
2024/01/19 04:04:19;;;;;;;12.50;7.10;;;-6.70;99.90;;;;;;5021919;28;20530;-63
2024/01/19 04:06:44;;;;;;;12.55;6.55;;;-6.80;99.90;;;;;;5018397;28;20026;-62
2024/01/19 04:09:10;;;;;;;19.23;9.83;;;-6.80;99.90;;;;;;5017470;28;20048;-62
2024/01/19 04:11:36;;;;;;;18.85;8.73;;;-6.70;99.90;;;;;;5015201;28;20096;-63
2024/01/19 04:14:02;;;;;;;14.52;7.82;;;-6.70;99.90;;;;;;5016805;28;20022;-62
2024/01/19 04:16:28;;;;;;;13.98;7.60;;;-6.70;99.90;;;;;;5017651;28;20044;-62
2024/01/19 04:18:53;;;;;;;15.00;7.50;;;-6.80;99.90;;;;;;5017843;28;20021;-63
2024/01/19 04:21:19;;;;;;;17.70;7.53;;;-6.80;99.90;;;;;;5016284;28;20033;-62
2024/01/19 04:23:44;;;;;;;16.40;7.95;;;-6.80;99.90;;;;;;5014153;28;20529;-62
2024/01/19 04:26:10;;;;;;;13.10;7.37;;;-6.80;99.90;;;;;;5016405;28;20038;-62
2024/01/19 04:28:36;;;;;;;13.10;7.57;;;-6.80;99.90;;;;;;5022355;28;20025;-62
2024/01/19 04:31:01;;;;;;;14.77;8.23;;;-6.90;99.90;;;;;;5022686;28;20275;-62
2024/01/19 04:33:27;;;;;;;19.03;9.03;;;-6.80;99.90;;;;;;5022886;28;20529;-62
2024/01/19 04:35:52;;;;;;;14.53;7.63;;;-6.80;99.90;;;;;;5022696;28;20029;-62
2024/01/19 04:38:18;;;;;;;18.53;8.63;;;-6.80;99.90;;;;;;5022566;28;20025;-62
2024/01/19 04:40:43;;;;;;;17.20;7.43;;;-6.80;99.90;;;;;;5024503;28;20025;-62
2024/01/19 04:43:09;;;;;;;11.32;5.75;;;-6.80;99.90;;;;;;5022661;28;20040;-62
2024/01/19 04:45:34;;;;;;;15.53;6.80;;;-6.80;99.90;;;;;;5018458;28;20496;-62
2024/01/19 04:48:00;;;;;;;14.50;6.37;;;-6.90;99.90;;;;;;5022399;28;20600;-62
2024/01/19 04:50:25;;;;;;;11.27;6.20;;;-6.90;99.90;;;;;;5022651;28;20026;-62
2024/01/19 04:52:51;;;;;;;15.63;6.73;;;-7.00;99.90;;;;;;5022524;28;20067;-62
2024/01/19 04:55:16;;;;;;;22.27;8.27;;;-7.00;99.90;;;;;;5022206;28;20029;-62
2024/01/19 04:57:41;;;;;;;13.67;6.73;;;-7.00;99.90;;;;;;5016388;28;20516;-62
2024/01/19 05:00:07;;;;;;;12.87;5.87;;;-7.00;99.90;;;;;;5022038;28;20098;-62
2024/01/19 05:02:33;;;;;;;11.40;6.43;;;-7.00;99.90;;;;;;5021111;28;20028;-62
2024/01/19 05:04:59;;;;;;;12.60;6.90;;;-7.10;99.90;;;;;;5012762;28;20025;-62
2024/01/19 05:07:26;;;;;;;11.93;5.43;;;-7.10;99.90;;;;;;5022352;28;20728;-62
2024/01/19 05:09:52;;;;;;;11.60;5.90;;;-7.10;99.90;;;;;;5021049;28;20041;-62
2024/01/19 05:12:17;;;;;;;17.00;6.27;;;-7.10;99.90;;;;;;5019872;28;20334;-62
2024/01/19 05:14:43;;;;;;;9.57;4.40;;;-7.10;99.90;;;;;;5017815;28;20017;-62
2024/01/19 05:17:08;;;;;;;13.10;5.57;;;-7.10;99.90;;;;;;5013964;28;20501;-63
2024/01/19 05:19:34;;;;;;;15.47;6.03;;;-7.00;99.90;;;;;;5015711;28;20032;-62
2024/01/19 05:21:59;;;;;;;10.00;5.80;;;-7.00;99.90;;;;;;5014416;28;20575;-62
2024/01/19 05:24:25;;;;;;;14.43;6.33;;;-7.00;99.90;;;;;;5013901;28;20397;-63
2024/01/19 05:26:50;;;;;;;12.57;6.83;;;-7.00;99.90;;;;;;5016488;28;20597;-62
2024/01/19 05:29:16;;;;;;;17.27;7.33;;;-7.00;99.90;;;;;;5018499;28;20038;-62
2024/01/19 05:31:41;;;;;;;11.77;6.00;;;-7.00;99.90;;;;;;5013535;28;20257;-62
2024/01/19 05:34:06;;;;;;;12.35;6.40;;;-6.90;99.90;;;;;;5019209;28;20033;-62
2024/01/19 05:36:32;;;;;;;11.57;6.27;;;-6.90;99.90;;;;;;5013857;28;20034;-62
2024/01/19 05:38:57;;;;;;;12.93;7.20;;;-6.90;99.90;;;;;;5015953;28;20033;-62
2024/01/19 05:41:23;;;;;;;13.20;7.50;;;-6.90;99.90;;;;;;5017698;28;20038;-62
2024/01/19 05:43:49;;;;;;;11.10;6.03;;;-6.90;99.90;;;;;;5013874;28;20025;-62
2024/01/19 05:46:14;;;;;;;13.23;6.30;;;-6.90;99.90;;;;;;5009268;28;20053;-62
2024/01/19 05:48:40;;;;;;;10.40;5.70;;;-6.90;99.90;;;;;;5009860;28;20033;-62
2024/01/19 05:51:16;;;;;;;12.33;6.03;;;-6.90;99.90;;;;;;5011839;28;20049;-62
2024/01/19 05:53:42;;;;;;;14.13;6.53;;;-6.90;99.90;;;;;;5010558;28;20036;-63
2024/01/19 05:56:07;;;;;;;12.70;5.43;;;-6.90;99.90;;;;;;5010617;28;20120;-62
2024/01/19 05:58:33;;;;;;;12.00;6.07;;;-6.90;99.90;;;;;;5020305;28;20108;-62
2024/01/19 06:01:00;;;;;;;8.40;4.70;;;-6.90;99.90;;;;;;5018299;28;20246;-61
2024/01/19 06:03:25;;;;;;;12.20;5.50;;;-6.90;99.90;;;;;;5009594;28;20532;-62
2024/01/19 06:05:51;;;;;;;9.23;5.40;;;-6.90;99.90;;;;;;5017212;28;20054;-62
2024/01/19 06:08:16;;;;;;;8.00;4.93;;;-6.90;99.90;;;;;;5011599;28;20045;-62
2024/01/19 06:10:42;;;;;;;11.03;6.10;;;-6.90;99.90;;;;;;5015867;28;20409;-62
2024/01/19 06:13:08;;;;;;;11.30;5.33;;;-6.90;99.90;;;;;;5011095;28;20034;-62
2024/01/19 06:15:34;;;;;;;11.90;5.50;;;-6.90;99.90;;;;;;5017271;28;20112;-62
2024/01/19 06:17:59;;;;;;;12.27;5.33;;;-6.90;99.90;;;;;;5015729;28;21101;-62
2024/01/19 06:20:25;;;;;;;8.50;5.03;;;-7.00;99.90;;;;;;5013703;28;20088;-62
2024/01/19 06:22:50;;;;;;;11.83;4.87;;;-7.00;99.90;;;;;;5013079;28;20037;-62
2024/01/19 06:25:16;;;;;;;14.73;6.50;;;-7.00;99.90;;;;;;5014921;28;20549;-62
2024/01/19 06:27:41;;;;;;;8.20;4.60;;;-7.00;99.90;;;;;;5013438;28;20044;-62
2024/01/19 06:30:07;;;;;;;18.27;7.00;;;-7.00;99.90;;;;;;5017648;28;20478;-62
2024/01/19 06:32:32;;;;;;;10.50;5.17;;;-7.00;99.90;;;;;;5012093;28;20027;-62
2024/01/19 06:34:58;;;;;;;12.80;6.17;;;-7.00;99.90;;;;;;5015191;28;20485;-63
2024/01/19 06:37:23;;;;;;;11.50;5.07;;;-6.90;99.90;;;;;;5005828;28;20037;-62
2024/01/19 06:39:49;;;;;;;15.50;6.07;;;-7.00;99.90;;;;;;5015731;28;20022;-62
2024/01/19 06:42:15;;;;;;;10.05;5.50;;;-6.90;99.90;;;;;;5014303;28;20017;-63
2024/01/19 06:44:43;;;;;;;27.93;12.80;;;-6.90;99.90;;;;;;5010642;28;20740;-62
2024/01/19 06:47:09;;;;;;;16.27;8.43;;;-6.90;99.90;;;;;;5014494;28;20060;-63
2024/01/19 06:49:36;;;;;;;12.83;7.20;;;-6.90;99.90;;;;;;5016469;28;20572;-62
2024/01/19 06:52:04;;;;;;;16.90;7.40;;;-7.00;99.90;;;;;;5014986;28;20064;-62
2024/01/19 06:54:30;;;;;;;13.10;6.07;;;-6.90;99.90;;;;;;5021188;28;20100;-62
2024/01/19 06:56:56;;;;;;;10.70;5.33;;;-6.90;99.90;;;;;;5013881;28;20085;-62
2024/01/19 06:59:21;;;;;;;14.97;5.97;;;-6.90;99.90;;;;;;5011922;28;20570;-62
2024/01/19 07:01:47;;;;;;;14.02;6.53;;;-6.80;99.90;;;;;;5005868;28;20041;-62
2024/01/19 07:04:12;;;;;;;11.57;5.63;;;-6.80;99.90;;;;;;5008141;28;20033;-62
2024/01/19 07:06:38;;;;;;;11.97;5.67;;;-6.80;99.90;;;;;;5009825;28;20584;-62
2024/01/19 07:09:04;;;;;;;14.55;6.03;;;-6.70;99.90;;;;;;5013156;28;20021;-63
2024/01/19 07:11:30;;;;;;;9.97;5.10;;;-6.70;99.90;;;;;;5005362;28;20030;-62
2024/01/19 07:13:56;;;;;;;11.77;5.97;;;-6.60;99.90;;;;;;5013095;28;20501;-62
2024/01/19 07:16:22;;;;;;;13.00;5.50;;;-6.50;99.90;;;;;;5014359;28;20025;-62
2024/01/19 07:18:47;;;;;;;7.43;4.70;;;-6.50;99.90;;;;;;5008819;28;20037;-61
2024/01/19 07:21:13;;;;;;;9.63;4.22;;;-6.40;99.90;;;;;;5012334;28;20037;-61
2024/01/19 07:23:38;;;;;;;11.98;4.30;;;-6.40;99.90;;;;;;5011862;28;20612;-61
2024/01/19 07:26:04;;;;;;;9.00;4.47;;;-6.30;99.90;;;;;;5011775;28;20604;-61
2024/01/19 07:28:29;;;;;;;7.57;3.92;;;-6.30;99.90;;;;;;5012448;28;20429;-61
2024/01/19 07:30:55;;;;;;;8.05;4.00;;;-6.20;99.90;;;;;;5010959;28;20441;-61
2024/01/19 07:33:20;;;;;;;7.28;4.35;;;-6.20;99.90;;;;;;5011797;28;20072;-60
2024/01/19 07:35:46;;;;;;;7.10;4.07;;;-6.10;99.90;;;;;;5013822;28;20028;-62
2024/01/19 07:38:11;;;;;;;10.85;4.30;;;-6.10;99.90;;;;;;5010506;28;20705;-61
2024/01/19 07:40:37;;;;;;;7.53;4.25;;;-6.00;99.90;;;;;;5011770;28;20127;-61
2024/01/19 07:43:02;;;;;;;9.48;4.22;;;-5.90;99.90;;;;;;5011633;28;20470;-61
2024/01/19 07:45:28;;;;;;;9.38;4.35;;;-5.90;99.90;;;;;;5015134;28;20060;-61
2024/01/19 07:47:54;;;;;;;8.85;4.25;;;-5.80;99.90;;;;;;5011150;28;20029;-61
2024/01/19 07:50:19;;;;;;;8.15;3.63;;;-5.70;99.90;;;;;;5012464;28;20018;-61
2024/01/19 07:52:45;;;;;;;7.03;3.42;;;-5.50;99.90;;;;;;5013457;28;20036;-61
2024/01/19 07:55:10;;;;;;;6.32;3.65;;;-5.40;99.90;;;;;;5015290;28;20108;-61
2024/01/19 07:57:36;;;;;;;8.13;4.05;;;-5.30;99.90;;;;;;5008309;28;20044;-62
2024/01/19 08:00:02;;;;;;;12.73;3.78;;;-5.10;99.90;;;;;;5016617;28;20045;-62
2024/01/19 08:02:28;;;;;;;10.52;4.90;;;-5.00;99.90;;;;;;5010946;28;20030;-61
2024/01/19 08:04:54;;;;;;;9.93;4.63;;;-4.90;99.90;;;;;;5014114;28;20022;-61
2024/01/19 08:07:19;;;;;;;9.50;3.88;;;-4.70;99.90;;;;;;5009005;28;20029;-62
2024/01/19 08:09:44;;;;;;;9.38;4.30;;;-4.50;99.90;;;;;;5010824;28;20521;-62
2024/01/19 08:12:10;;;;;;;10.25;4.15;;;-4.30;99.90;;;;;;5014578;28;20025;-62
2024/01/19 08:14:35;;;;;;;11.32;3.97;;;-4.10;99.90;;;;;;5006952;28;20029;-61
2024/01/19 08:17:01;;;;;;;6.88;3.53;;;-3.90;99.90;;;;;;5004306;28;20170;-61
2024/01/19 08:19:27;;;;;;;10.35;4.18;;;-3.80;99.90;;;;;;5017245;28;20079;-62
2024/01/19 08:21:52;;;;;;;11.95;5.32;;;-3.60;99.90;;;;;;5019219;28;20037;-62
2024/01/19 08:24:18;;;;;;;10.73;5.18;;;-3.50;99.90;;;;;;5014716;28;20100;-62
2024/01/19 08:26:43;;;;;;;11.38;4.80;;;-3.40;99.90;;;;;;5018048;28;20045;-62
2024/01/19 08:29:09;;;;;;;7.32;3.63;;;-3.20;99.90;;;;;;5010291;28;20033;-62
2024/01/19 08:31:34;;;;;;;14.35;4.60;;;-3.00;99.90;;;;;;5010140;28;20029;-62
2024/01/19 08:34:00;;;;;;;9.60;4.30;;;-2.80;99.90;;;;;;5010677;28;20447;-62
2024/01/19 08:36:25;;;;;;;7.53;4.15;;;-2.60;99.90;;;;;;5018773;28;20045;-62
2024/01/19 08:38:51;;;;;;;13.27;4.82;;;-2.40;99.90;;;;;;5010378;28;20631;-62
2024/01/19 08:41:16;;;;;;;9.00;4.22;;;-2.20;99.90;;;;;;5012268;28;20041;-63
2024/01/19 08:43:42;;;;;;;10.07;4.63;;;-2.00;99.90;;;;;;5008752;28;20030;-63
2024/01/19 08:46:07;;;;;;;8.80;5.05;;;-1.70;99.90;;;;;;5012686;28;20410;-62
2024/01/19 08:48:33;;;;;;;8.30;3.80;;;-1.50;99.90;;;;;;5012247;28;20371;-63
2024/01/19 08:50:59;;;;;;;9.15;4.93;;;-1.20;99.90;;;;;;5017933;28;20037;-60
2024/01/19 08:53:24;;;;;;;8.43;4.95;;;-0.90;99.90;;;;;;5009849;28;21046;-61
2024/01/19 08:55:50;;;;;;;8.05;4.78;;;-0.60;99.90;;;;;;5022123;28;20124;-57
2024/01/19 08:58:16;;;;;;;12.93;4.78;;;-0.40;99.90;;;;;;5017891;28;20458;-58
2024/01/19 09:00:42;;;;;;;8.48;4.35;;;-0.40;99.90;;;;;;5021869;28;20099;-58
2024/01/19 09:03:08;;;;;;;9.57;4.53;;;-0.30;99.90;;;;;;5012638;28;20026;-58
2024/01/19 09:05:34;;;;;;;8.90;4.70;;;-0.30;99.90;;;;;;5015821;28;20029;-57
2024/01/19 09:08:00;;;;;;;9.75;4.63;;;-0.30;99.90;;;;;;5015049;28;20113;-58
2024/01/19 09:10:26;;;;;;;10.02;4.30;;;-0.20;99.90;;;;;;5013767;28;20132;-57
2024/01/19 09:12:51;;;;;;;14.07;4.50;;;-0.10;99.90;;;;;;5014391;28;20032;-58
2024/01/19 09:15:17;;;;;;;8.27;4.15;;;-0.10;99.90;;;;;;5015323;28;20033;-58
2024/01/19 09:17:43;;;;;;;11.85;4.45;;;0.00;99.90;;;;;;5016461;28;20112;-58
2024/01/19 09:20:09;;;;;;;8.52;4.05;;;0.10;99.90;;;;;;5019387;28;20017;-58
2024/01/19 09:22:34;;;;;;;7.40;4.28;;;0.30;99.90;;;;;;5011385;28;20136;-58
2024/01/19 09:25:00;;;;;;;9.85;4.22;;;0.40;99.90;;;;;;5014860;28;20108;-58
2024/01/19 09:27:27;;;;;;;9.88;4.10;;;0.60;99.90;;;;;;5019435;28;20103;-58
2024/01/19 09:29:53;;;;;;;8.90;4.85;;;0.80;99.90;;;;;;5020026;28;20033;-58
2024/01/19 09:32:18;;;;;;;8.55;4.80;;;0.90;99.90;;;;;;5019607;28;20410;-58
2024/01/19 09:34:45;;;;;;;11.20;4.35;;;1.10;99.90;;;;;;5022482;28;20492;-58
2024/01/19 09:37:10;;;;;;;6.70;4.47;;;1.10;99.90;;;;;;5018051;28;20438;-58
2024/01/19 09:39:36;;;;;;;11.70;6.00;;;1.20;99.90;;;;;;5020597;28;20109;-58
2024/01/19 09:42:16;;;;;;;9.48;4.50;;;1.20;99.90;;;;;;5021313;28;20037;-58
2024/01/19 09:44:49;;;;;;;9.80;4.85;;;1.10;99.90;;;;;;5020324;28;20028;-58
2024/01/19 09:47:22;;;;;;;8.75;4.70;;;1.20;99.90;;;;;;5019223;28;20124;-58
2024/01/19 09:50:04;;;;;;;10.60;5.20;;;1.30;99.90;;;;;;5018587;28;20104;-58
2024/01/19 09:52:39;;;;;;;10.75;4.68;;;1.40;99.90;;;;;;5016104;28;20108;-58
2024/01/19 09:55:05;;;;;;;11.63;5.03;;;1.40;99.90;;;;;;5020439;28;20036;-59
2024/01/19 09:57:34;;;;;;;10.65;4.85;;;1.30;99.90;;;;;;5017580;28;20112;-59
2024/01/19 10:00:00;;;;;;;16.67;5.68;;;1.30;99.90;;;;;;5020646;28;20037;-58
2024/01/19 10:02:27;;;;;;;10.52;4.88;;;1.20;99.90;;;;;;5014595;28;20037;-58
2024/01/19 10:04:53;;;;;;;11.82;5.53;;;1.20;99.90;;;;;;5018913;28;20045;-58
2024/01/19 10:07:19;;;;;;;11.70;4.72;;;1.20;99.90;;;;;;5017010;28;20066;-58
2024/01/19 10:09:51;;;;;;;10.40;5.60;;;1.30;99.90;;;;;;5019804;28;20045;-59
2024/01/19 10:12:19;;;;;;;11.02;5.15;;;1.30;99.90;;;;;;5018423;28;20037;-59
2024/01/19 10:14:44;;;;;;;8.52;4.70;;;1.30;99.90;;;;;;5019506;28;20645;-59
2024/01/19 10:17:10;;;;;;;8.43;4.43;;;1.30;99.90;;;;;;5019627;28;20020;-59
2024/01/19 10:19:36;;;;;;;8.98;4.82;;;1.30;99.90;;;;;;5018159;28;20044;-58
2024/01/19 10:22:27;;;;;;;9.38;4.95;;;1.30;99.90;;;;;;5020574;28;20113;-59
2024/01/19 10:25:11;;;;;;;12.45;5.78;;;1.30;99.90;;;;;;5019826;28;20024;-59
2024/01/19 10:27:45;;;;;;;10.90;5.45;;;1.20;99.90;;;;;;5013529;28;20510;-59
2024/01/19 10:30:12;;;;;;;8.07;4.35;;;1.30;99.90;;;;;;5020478;28;20017;-59
2024/01/19 10:32:43;;;;;;;9.88;5.03;;;1.50;99.90;;;;;;5016126;28;20449;-60
2024/01/19 10:35:11;;;;;;;12.07;5.47;;;1.60;99.90;;;;;;5011184;28;20025;-59
2024/01/19 10:37:37;;;;;;;13.73;4.72;;;1.80;99.90;;;;;;5013256;28;20051;-59
2024/01/19 10:40:22;;;;;;;8.30;4.60;;;1.80;99.90;;;;;;5016346;28;20100;-59
2024/01/19 10:42:53;;;;;;;9.77;5.55;;;1.90;99.90;;;;;;5015595;28;20040;-59
2024/01/19 10:45:23;;;;;;;7.15;4.10;;;1.90;99.90;;;;;;5020133;28;20049;-59
2024/01/19 10:47:54;;;;;;;14.20;4.38;;;1.80;99.90;;;;;;5015726;28;20375;-59
2024/01/19 10:50:20;;;;;;;8.95;4.53;;;1.70;99.90;;;;;;5019918;28;20033;-59
2024/01/19 10:52:48;;;;;;;10.75;4.90;;;1.70;99.90;;;;;;5013783;28;20348;-59
2024/01/19 10:55:32;;;;;;;11.57;4.55;;;1.60;99.90;;;;;;5018589;28;20033;-59
2024/01/19 10:58:12;;;;;;;8.52;3.90;;;1.60;99.90;;;;;;5013267;28;20397;-59
2024/01/19 11:00:38;;;;;;;7.28;4.38;;;1.60;99.90;;;;;;5012135;28;20041;-59
2024/01/19 11:03:04;;;;;;;7.80;4.15;;;1.60;99.90;;;;;;5010575;28;20028;-59
2024/01/19 11:05:31;;;;;;;10.15;4.53;;;1.70;99.80;;;;;;5009966;28;20045;-60
2024/01/19 11:07:58;;;;;;;10.10;4.55;;;1.70;98.90;;;;;;5012904;28;20034;-59
2024/01/19 11:10:25;;;;;;;9.10;4.70;;;1.80;99.40;;;;;;5011479;28;20525;-59
2024/01/19 11:12:58;;;;;;;11.57;4.65;;;1.80;99.50;;;;;;5012337;28;20033;-59
2024/01/19 11:15:34;;;;;;;10.82;5.00;;;1.90;98.70;;;;;;5010562;28;20025;-59
2024/01/19 11:18:01;;;;;;;8.27;4.55;;;1.90;97.90;;;;;;5016962;28;20022;-59
2024/01/19 11:20:29;;;;;;;7.85;4.50;;;1.90;97.40;;;;;;5019447;28;20104;-59
2024/01/19 11:22:54;;;;;;;10.98;4.97;;;2.00;98.00;;;;;;5015919;28;20647;-59
2024/01/19 11:25:31;;;;;;;8.55;4.15;;;2.20;96.80;;;;;;5017419;28;20026;-59
2024/01/19 11:28:05;;;;;;;12.65;5.00;;;2.40;97.40;;;;;;5017945;28;20047;-58
2024/01/19 11:31:00;;;;;;;14.52;4.57;;;2.60;97.00;;;;;;5019586;28;20041;-59
2024/01/19 11:33:29;;;;;;;8.55;4.30;;;2.70;96.20;;;;;;5016503;28;20040;-59
2024/01/19 11:35:55;;;;;;;11.10;4.20;;;2.70;95.40;;;;;;5019128;28;20577;-60
2024/01/19 11:38:42;;;;;;;7.13;3.65;;;2.80;95.10;;;;;;5017163;28;20152;-58
2024/01/19 11:41:10;;;;;;;6.05;3.70;;;2.90;95.90;;;;;;5019363;28;20068;-59
2024/01/19 11:43:42;;;;;;;9.77;4.03;;;3.00;95.60;;;;;;5016954;28;20032;-59
2024/01/19 11:46:11;;;;;;;10.73;5.50;;;3.10;95.50;;;;;;5018970;28;20347;-59
2024/01/19 11:48:43;;;;;;;10.68;4.85;;;3.10;95.10;;;;;;5017150;28;20057;-60
2024/01/19 11:51:27;;;;;;;12.60;4.78;;;3.20;94.70;;;;;;5019169;28;20052;-59
2024/01/19 11:53:55;;;;;;;14.80;6.40;;;3.20;94.70;;;;;;5013926;28;20025;-59
2024/01/19 11:56:22;;;;;;;9.85;4.60;;;3.20;94.00;;;;;;5018957;28;20029;-59
2024/01/19 11:58:47;;;;;;;9.55;4.50;;;3.10;93.70;;;;;;5017822;28;20048;-59
2024/01/19 12:01:13;;;;;;;6.85;3.83;;;3.10;94.20;;;;;;5012972;28;20120;-59
2024/01/19 12:03:39;;;;;;;10.65;5.38;;;3.10;94.20;;;;;;5016226;28;20087;-59
2024/01/19 12:06:05;;;;;;;10.82;4.03;;;3.20;94.20;;;;;;5019210;28;20025;-59
2024/01/19 12:08:32;;;;;;;8.45;3.95;;;3.20;94.50;;;;;;5008061;28;20032;-58
2024/01/19 12:11:09;;;;;;;9.35;5.00;;;3.30;94.20;;;;;;5018366;28;20033;-59
2024/01/19 12:13:39;;;;;;;7.90;4.07;;;3.10;93.30;;;;;;5015586;28;20325;-59
2024/01/19 12:16:06;;;;;;;9.27;3.92;;;3.00;93.10;;;;;;5018994;28;20052;-59
2024/01/19 12:18:33;;;;;;;7.32;4.25;;;2.90;93.20;;;;;;5015454;28;20037;-59
2024/01/19 12:20:59;;;;;;;12.07;4.85;;;2.80;93.00;;;;;;5021644;28;20021;-59
2024/01/19 12:23:25;;;;;;;12.27;4.90;;;2.70;93.40;;;;;;5021256;28;20505;-59
2024/01/19 12:25:58;;;;;;;9.15;3.85;;;2.60;93.10;;;;;;5020340;28;20086;-58
2024/01/19 12:28:24;;;;;;;12.75;4.80;;;2.60;93.10;;;;;;5017597;28;20045;-59
2024/01/19 12:30:53;;;;;;;11.85;4.53;;;2.40;93.30;;;;;;5015970;28;20111;-59
2024/01/19 12:33:21;;;;;;;11.27;4.10;;;2.40;93.50;;;;;;5019173;28;20033;-59
2024/01/19 12:35:47;;;;;;;11.32;4.07;;;2.40;93.60;;;;;;5022436;28;20043;-59
2024/01/19 12:38:15;;;;;;;7.75;4.15;;;2.40;93.70;;;;;;5019128;28;20108;-59
2024/01/19 12:40:41;;;;;;;6.28;3.20;;;2.40;93.40;;;;;;5014185;28;20037;-59